Time;durP1;ratioP1;P1;durP2;ratioP2;P2;SDS_P1;SDS_P2;PMS_P1;PMS_P2;Temp;Humidity;BMP_temperature;BMP_pressure;BME280_temperature;BME280_humidity;BME280_pressure;Samples;Min_cycle;Max_cycle;Signal;HPM_P1;HPM_P2
2022/06/06 00:03:48;;;;;;;;;;;;;;;-145.66;100.00;59599.19;10500727;28;19927;-66
2022/06/06 00:08:50;;;;;;;;;;;;;;;-145.66;100.00;59599.19;10482345;28;20283;-65
2022/06/06 00:13:53;;;;;;;;;;;;;;;-145.66;100.00;59599.19;10499905;28;19931;-65
2022/06/06 00:18:55;;;;;;;;;;;;;;;-145.66;100.00;59599.19;10500097;28;19920;-66
2022/06/06 00:23:59;;;;;;;;;;;;;;;-145.66;100.00;59599.19;10499156;28;20295;-66
2022/06/06 00:29:02;;;;;;;;;;;;;;;-145.66;100.00;59599.19;10499487;28;19920;-65
2022/06/06 00:39:25;;;;;;;;;;;;;;;-145.66;100.00;59599.19;10499485;28;19926;-65
2022/06/06 00:44:31;;;;;;;;;;;;;;;-145.66;100.00;59599.19;10499287;28;19920;-65
2022/06/06 00:49:35;;;;;;;;;;;;;;;-145.66;100.00;59599.19;10499362;28;19924;-64
2022/06/06 00:54:38;;;;;;;;;;;;;;;-145.66;100.00;59599.19;10480840;28;19920;-65
2022/06/06 00:59:40;;;;;;;;;;;;;;;-145.66;100.00;59599.19;10498546;28;19928;-64
2022/06/06 01:04:42;;;;;;;;;;;;;;;-145.66;100.00;59599.19;10498225;28;20290;-64
2022/06/06 01:09:44;;;;;;;;;;;;;;;-145.66;100.00;59599.19;10498900;28;19920;-65
2022/06/06 01:14:51;;;;;;;;;;;;;;;-145.66;100.00;59599.19;10479885;28;20410;-65
2022/06/06 01:19:54;;;;;;;;;;;;;;;-145.66;100.00;59599.19;10480840;28;19924;-65
2022/06/06 01:25:05;;;;;;;;;;;;;;;-145.66;100.00;59599.19;10498386;28;19920;-65
2022/06/06 01:30:09;;;;;;;;;;;;;;;-145.66;100.00;59599.19;10497809;28;19920;-65
2022/06/06 01:35:20;;;;;;;;;;;;;;;-145.66;100.00;59599.19;10486702;28;19929;-65
2022/06/06 01:40:23;;;;;;;;;;;;;;;-145.66;100.00;59599.19;10488340;28;20060;-65
2022/06/06 01:45:27;;;;;;;;;;;;;;;-145.66;100.00;59599.19;10487596;28;20368;-65
2022/06/06 01:50:30;;;;;;;;;;;;;;;-145.66;100.00;59599.19;10487882;28;19921;-65
2022/06/06 01:55:33;;;;;;;;;;;;;;;-145.66;100.00;59599.19;10488187;28;19928;-65
2022/06/06 02:00:36;;;;;;;;;;;;;;;-145.66;100.00;59599.19;10505853;28;19927;-65
2022/06/06 02:05:38;;;;;;;;;;;;;;;-145.66;100.00;59599.19;10504702;28;19943;-65
2022/06/06 02:10:40;;;;;;;;;;;;;;;-145.66;100.00;59599.19;10504332;28;20380;-65
2022/06/06 02:15:42;;;;;;;;;;;;;;;-145.66;100.00;59599.19;10505229;28;19927;-65
2022/06/06 02:20:45;;;;;;;;;;;;;;;-145.66;100.00;59599.19;10504195;28;20355;-66
2022/06/06 02:25:47;;;;;;;;;;;;;;;-145.66;100.00;59599.19;10486742;28;19956;-66
2022/06/06 02:30:49;;;;;;;;;;;;;;;-145.66;100.00;59599.19;10503626;28;19921;-66
2022/06/06 02:35:51;;;;;;;;;;;;;;;-145.66;100.00;59599.19;10486700;28;19927;-66
2022/06/06 02:40:54;;;;;;;;;;;;;;;-145.66;100.00;59599.19;10485916;28;19931;-65
2022/06/06 02:45:56;;;;;;;;;;;;;;;-145.66;100.00;59599.19;10504014;28;19927;-64
2022/06/06 02:50:58;;;;;;;;;;;;;;;-145.66;100.00;59599.19;10503648;28;19942;-65
2022/06/06 02:56:01;;;;;;;;;;;;;;;-145.66;100.00;59599.19;10503234;28;19921;-64
2022/06/06 03:01:07;;;;;;;;;;;;;;;-145.66;100.00;59599.19;10485919;28;19920;-64
2022/06/06 03:06:29;;;;;;;;;;;;;;;-145.66;100.00;59599.19;10485867;28;19920;-64
2022/06/06 03:11:44;;;;;;;;;;;;;;;-145.66;100.00;59599.19;10502229;28;19920;-64
2022/06/06 03:22:26;;;;;;;;;;;;;;;-145.66;100.00;59599.19;10501718;28;20308;-65
2022/06/06 03:27:28;;;;;;;;;;;;;;;-145.66;100.00;59599.19;10502268;28;19921;-64
2022/06/06 03:32:31;;;;;;;;;;;;;;;-145.66;100.00;59599.19;10502357;28;19921;-65
2022/06/06 03:37:33;;;;;;;;;;;;;;;-145.66;100.00;59599.19;10501256;28;20279;-65
2022/06/06 03:42:38;;;;;;;;;;;;;;;-145.66;100.00;59599.19;10508821;23;19920;-65
2022/06/06 03:47:49;;;;;;;;;;;;;;;-145.66;100.00;59599.19;10516421;28;20377;-65
2022/06/06 03:53:00;;;;;;;;;;;;;;;-145.66;100.00;59599.19;10525468;28;19959;-64
2022/06/06 03:58:03;;;;;;;;;;;;;;;-145.66;100.00;59599.19;10541870;28;20366;-64
2022/06/06 04:03:05;;;;;;;;;;;;;;;-145.66;100.00;59599.19;10523449;28;19920;-65
2022/06/06 04:08:08;;;;;;;;;;;;;;;-145.66;100.00;59599.19;10542754;28;19985;-65
2022/06/06 04:13:15;;;;;;;;;;;;;;;-145.66;100.00;59599.19;10542607;28;19920;-66
2022/06/06 04:18:30;;;;;;;;;;;;;;;-145.66;100.00;59599.19;10502994;28;20299;-65
2022/06/06 04:23:36;;;;;;;;;;;;;;;-145.66;100.00;59599.19;10496901;28;19920;-67
2022/06/06 04:28:52;;;;;;;;;;;;;;;-145.66;100.00;59599.19;10541366;28;19920;-65
2022/06/06 04:34:01;;;;;;;;;;;;;;;-145.66;100.00;59599.19;10541863;28;19924;-66
2022/06/06 04:39:15;;;;;;;;;;;;;;;-145.66;100.00;59599.19;10500242;28;19921;-66
2022/06/06 04:44:22;;;;;;;;;;;;;;;-145.66;100.00;59599.19;10502625;28;19920;-66
2022/06/06 04:49:26;;;;;;;;;;;;;;;-145.66;100.00;59599.19;10540741;28;19920;-66
2022/06/06 04:54:28;;;;;;;;;;;;;;;-145.66;100.00;59599.19;10541298;28;20006;-66
2022/06/06 04:59:30;;;;;;;;;;;;;;;-145.66;100.00;59599.19;10515437;28;19926;-66
2022/06/06 05:04:33;;;;;;;;;;;;;;;-145.66;100.00;59599.19;10482353;28;19928;-67
2022/06/06 05:09:35;;;;;;;;;;;;;;;-145.66;100.00;59599.19;10498032;28;19954;-66
2022/06/06 05:14:56;;;;;;;;;;;;;;;-145.66;100.00;59599.19;10538949;28;19927;-67
2022/06/06 05:20:03;;;;;;;;;;;;;;;-145.66;100.00;59599.19;10508940;28;20042;-66
2022/06/06 05:25:12;;;;;;;;;;;;;;;-145.66;100.00;59599.19;10507490;28;20392;-66
2022/06/06 05:30:14;;;;;;;;;;;;;;;-145.66;100.00;59599.19;10540548;28;19930;-66
2022/06/06 05:35:19;;;;;;;;;;;;;;;-145.66;100.00;59599.19;10540321;28;20005;-65
2022/06/06 05:40:28;;;;;;;;;;;;;;;-145.66;100.00;59599.19;10533157;28;20283;-66
2022/06/06 05:45:39;;;;;;;;;;;;;;;-145.66;100.00;59599.19;10525899;28;19919;-66
2022/06/06 05:51:00;;;;;;;;;;;;;;;-145.66;100.00;59599.19;10522006;28;19920;-66
2022/06/06 05:56:09;;;;;;;;;;;;;;;-145.66;100.00;59599.19;10539674;28;19920;-65
2022/06/06 06:01:11;;;;;;;;;;;;;;;-145.66;100.00;59599.19;10539980;28;19926;-65
2022/06/06 06:06:19;;;;;;;;;;;;;;;-145.66;100.00;59599.19;10538800;28;20457;-65
2022/06/06 06:11:21;;;;;;;;;;;;;;;-145.66;100.00;59599.19;10539257;28;19927;-65
2022/06/06 06:16:23;;;;;;;;;;;;;;;-145.66;100.00;59599.19;10539023;28;19920;-65
2022/06/06 06:21:29;;;;;;;;;;;;;;;-145.66;100.00;59599.19;10526858;28;20010;-65
2022/06/06 06:26:32;;;;;;;;;;;;;;;-145.66;100.00;59599.19;10528635;28;19920;-65
2022/06/06 06:31:46;;;;;;;;;;;;;;;-145.66;100.00;59599.19;10545842;28;19920;-65
2022/06/06 06:36:52;;;;;;;;;;;;;;;-145.66;100.00;59599.19;10544904;28;19959;-65
2022/06/06 06:41:59;;;;;;;;;;;;;;;-145.66;100.00;59599.19;10527593;28;19920;-66
2022/06/06 06:47:25;;;;;;;;;;;;;;;-145.66;100.00;59599.19;10527745;28;19920;-66
2022/06/06 06:52:30;;;;;;;;;;;;;;;-145.66;100.00;59599.19;10530470;28;19920;-64
2022/06/06 06:57:35;;;;;;;;;;;;;;;-145.66;100.00;59599.19;10546168;28;19920;-64
2022/06/06 07:08:32;;;;;;;;;;;;;;;-145.66;100.00;59599.19;10529984;28;19969;-64
2022/06/06 07:13:41;;;;;;;;;;;;;;;-145.66;100.00;59599.19;10529828;28;20101;-64
2022/06/06 07:18:43;;;;;;;;;;;;;;;-145.66;100.00;59599.19;10544475;28;19926;-63
2022/06/06 07:23:48;;;;;;;;;;;;;;;-145.66;100.00;59599.19;10525767;28;19924;-63
2022/06/06 07:28:50;;;;;;;;;;;;;;;-145.66;100.00;59599.19;10525481;28;19946;-68
2022/06/06 07:34:05;;;;;;;;;;;;;;;-145.66;100.00;59599.19;10543557;28;19927;-65
2022/06/06 07:39:13;;;;;;;;;;;;;;;-145.66;100.00;59599.19;10543850;28;19928;-66
2022/06/06 07:44:35;;;;;;;;;;;;;;;-145.66;100.00;59599.19;10543288;28;19930;-64
2022/06/06 07:49:37;;;;;;;;;;;;;;;-145.66;100.00;59599.19;10442630;28;19928;-65
2022/06/06 07:54:49;;;;;;;;;;;;;;;-145.66;100.00;59599.19;10459554;28;19921;-64
2022/06/06 07:59:52;;;;;;;;;;;;;;;-145.66;100.00;59599.19;10469727;28;20285;-63
2022/06/06 08:04:58;;;;;;;;;;;;;;;-145.66;100.00;59599.19;10542401;28;20359;-64
2022/06/06 08:10:00;;;;;;;;;;;;;;;-145.66;100.00;59599.19;10524123;28;20377;-63
2022/06/06 08:15:04;;;;;;;;;;;;;;;-145.66;100.00;59599.19;10540164;28;19920;-64
2022/06/06 08:20:15;;;;;;;;;;;;;;;-145.66;100.00;59599.19;10541558;28;19924;-64
2022/06/06 08:25:19;;;;;;;;;;;;;;;-145.66;100.00;59599.19;10541726;28;19920;-64
2022/06/06 08:30:22;;;;;;;;;;;;;;;-145.66;100.00;59599.19;10522754;28;19927;-62
2022/06/06 08:35:26;;;;;;;;;;;;;;;-145.66;100.00;59599.19;10540901;28;19920;-65
2022/06/06 08:40:31;;;;;;;;;;;;;;;-145.66;100.00;59599.19;10508593;28;20278;-65
2022/06/06 08:45:42;;;;;;;;;;;;;;;-145.66;100.00;59599.19;10498931;28;19920;-65
2022/06/06 08:50:53;;;;;;;;;;;;;;;-145.66;100.00;59599.19;10499437;28;19921;-65
2022/06/06 08:55:59;;;;;;;;;;;;;;;-145.66;100.00;59599.19;10497168;28;19925;-65
2022/06/06 09:01:01;;;;;;;;;;;;;;;-145.66;100.00;59599.19;10499228;28;19920;-66
2022/06/06 09:06:38;;;;;;;;;;;;;;;-145.66;100.00;59599.19;10498690;28;20359;-66
2022/06/06 09:11:59;;;;;;;;;;;;;;;-145.66;100.00;59599.19;10449230;28;19920;-66
2022/06/06 09:17:20;;;;;;;;;;;;;;;-145.66;100.00;59599.19;10540388;28;19927;-65
2022/06/06 09:22:33;;;;;;;;;;;;;;;-145.66;100.00;59599.19;10535213;28;19927;-66
2022/06/06 09:27:54;;;;;;;;;;;;;;;-145.66;100.00;59599.19;10496164;28;19946;-66
2022/06/06 09:33:05;;;;;;;;;;;;;;;-145.66;100.00;59599.19;10498379;28;19939;-66
2022/06/06 09:38:09;;;;;;;;;;;;;;;-145.66;100.00;59599.19;10497663;28;20286;-65
2022/06/06 09:43:20;;;;;;;;;;;;;;;-145.66;100.00;59599.19;10497628;28;20401;-66
2022/06/06 09:48:25;;;;;;;;;;;;;;;-145.66;100.00;59599.19;10497546;28;20441;-66
2022/06/06 09:53:40;;;;;;;;;;;;;;;-145.66;100.00;59599.19;10499622;28;19921;-66
2022/06/06 10:04:00;;;;;;;;;;;;;;;-145.66;100.00;59599.19;10505223;28;19924;-66
2022/06/06 10:09:17;;;;;;;;;;;;;;;-145.66;100.00;59599.19;10504359;28;19928;-66
2022/06/06 10:14:58;;;;;;;;;;;;;;;-145.66;100.00;59599.19;10505388;28;19928;-66
2022/06/06 10:20:00;;;;;;;;;;;;;;;-145.66;100.00;59599.19;10336254;28;19922;-66
2022/06/06 10:25:11;;;;;;;;;;;;;;;-145.66;100.00;59599.19;10500975;28;19960;-65
2022/06/06 10:30:18;;;;;;;;;;;;;;;-145.66;100.00;59599.19;10546740;28;19920;-65
2022/06/06 10:35:25;;;;;;;;;;;;;;;-145.66;100.00;59599.19;10546583;28;19924;-65
2022/06/06 10:40:27;;;;;;;;;;;;;;;-145.66;100.00;59599.19;10527870;28;20312;-65
2022/06/06 10:45:31;;;;;;;;;;;;;;;-145.66;100.00;59599.19;10544666;28;19926;-65
2022/06/06 10:51:36;;;;;;;;;;;;;;;-145.66;100.00;59599.19;10528031;28;19920;-65
2022/06/06 10:56:24;;;;;;;;;;;;;;;-145.66;100.00;59599.19;10526748;28;20389;-65
2022/06/06 11:01:26;;;;;;;;;;;;;;;-145.66;100.00;59599.19;10528837;28;19924;-65
2022/06/06 11:06:48;;;;;;;;;;;;;;;-145.66;100.00;59599.19;10503025;28;20003;-65
2022/06/06 11:11:51;;;;;;;;;;;;;;;-145.66;100.00;59599.19;10532426;28;19920;-66
2022/06/06 11:16:53;;;;;;;;;;;;;;;-145.66;100.00;59599.19;10505210;28;19927;-67
2022/06/06 11:21:55;;;;;;;;;;;;;;;-145.66;100.00;59599.19;10544810;28;19920;-64
2022/06/06 11:27:09;;;;;;;;;;;;;;;-145.66;100.00;59599.19;10544649;28;19945;-63
2022/06/06 11:32:15;;;;;;;;;;;;;;;-145.66;100.00;59599.19;10525822;28;19919;-64
2022/06/06 11:37:43;;;;;;;;;;;;;;;-145.66;100.00;59599.19;10526258;28;19926;-64
2022/06/06 11:43:04;;;;;;;;;;;;;;;-145.66;100.00;59599.19;10505281;28;19924;-64
2022/06/06 11:48:09;;;;;;;;;;;;;;;-145.66;100.00;59599.19;10543638;28;19924;-64
2022/06/06 11:53:30;;;;;;;;;;;;;;;-145.66;100.00;59599.19;10543464;28;19927;-64
2022/06/06 11:58:51;;;;;;;;;;;;;;;-145.66;100.00;59599.19;10542693;28;20389;-65
2022/06/06 12:04:02;;;;;;;;;;;;;;;-145.66;100.00;59599.19;10524553;28;20281;-65
2022/06/06 12:09:05;;;;;;;;;;;;;;;-145.66;100.00;59599.19;10524261;28;20390;-65
2022/06/06 12:14:21;;;;;;;;;;;;;;;-145.66;100.00;59599.19;10542717;28;19931;-65
2022/06/06 12:19:38;;;;;;;;;;;;;;;-145.66;100.00;59599.19;10524200;28;19926;-64
2022/06/06 12:24:55;;;;;;;;;;;;;;;-145.66;100.00;59599.19;10539318;28;20367;-65
2022/06/06 12:30:06;;;;;;;;;;;;;;;-145.66;100.00;59599.19;10524076;28;19924;-65
2022/06/06 12:35:11;;;;;;;;;;;;;;;-145.66;100.00;59599.19;10540198;28;19920;-62
2022/06/06 12:40:24;;;;;;;;;;;;;;;-145.66;100.00;59599.19;10523757;28;19920;-64
2022/06/06 12:45:44;;;;;;;;;;;;;;;-145.66;100.00;59599.19;10540826;28;19927;-63
2022/06/06 12:50:53;;;;;;;;;;;;;;;-145.66;100.00;59599.19;10501788;28;19931;-63
2022/06/06 13:01:40;;;;;;;;;;;;;;;-145.66;100.00;59599.19;10507578;28;19920;-63
2022/06/06 13:06:52;;;;;;;;;;;;;;;-145.66;100.00;59599.19;10521153;28;19920;-62
2022/06/06 13:12:03;;;;;;;;;;;;;;;-145.66;100.00;59599.19;10520980;28;19920;-63
2022/06/06 13:17:11;;;;;;;;;;;;;;;-145.66;100.00;59599.19;10540083;28;20385;-64
2022/06/06 13:22:24;;;;;;;;;;;;;;;-145.66;100.00;59599.19;10522123;28;19920;-64
2022/06/06 13:27:52;;;;;;;;;;;;;;;-145.66;100.00;59599.19;10522675;28;19931;-64
2022/06/06 13:32:57;;;;;;;;;;;;;;;-145.66;100.00;59599.19;10530578;28;19927;-64
2022/06/06 13:38:03;;;;;;;;;;;;;;;-145.66;100.00;59599.19;10548304;28;20211;-64
2022/06/06 13:43:09;;;;;;;;;;;;;;;-145.66;100.00;59599.19;10530365;28;19927;-63
2022/06/06 13:48:17;;;;;;;;;;;;;;;-145.66;100.00;59599.19;10548512;28;19920;-63
2022/06/06 13:53:38;;;;;;;;;;;;;;;-145.66;100.00;59599.19;10547738;28;20381;-63
2022/06/06 13:58:50;;;;;;;;;;;;;;;-145.66;100.00;59599.19;10548159;28;19920;-62
2022/06/06 14:04:02;;;;;;;;;;;;;;;-145.66;100.00;59599.19;10529808;28;19920;-62
2022/06/06 14:09:04;;;;;;;;;;;;;;;-145.66;100.00;59599.19;10546980;28;20431;-62
2022/06/06 14:14:06;;;;;;;;;;;;;;;-145.66;100.00;59599.19;10546900;28;20356;-64
2022/06/06 14:19:49;;;;;;;;;;;;;;;-145.66;100.00;59599.19;10532293;28;19920;-62
2022/06/06 14:24:52;;;;;;;;;;;;;;;-145.66;100.00;59599.19;10546156;28;19920;-63
2022/06/06 14:29:58;;;;;;;;;;;;;;;-145.66;100.00;59599.19;10528383;28;20367;-63
2022/06/06 14:35:03;;;;;;;;;;;;;;;-145.66;100.00;59599.19;10546648;28;19920;-62
2022/06/06 14:40:10;;;;;;;;;;;;;;;-145.66;100.00;59599.19;10546078;28;19945;-63
2022/06/06 14:45:15;;;;;;;;;;;;;;;-145.66;100.00;59599.19;10545242;28;20473;-63
2022/06/06 14:55:39;;;;;;;;;;;;;;;-145.66;100.00;59599.19;10544769;28;20358;-64
2022/06/06 15:01:00;;;;;;;;;;;;;;;-145.66;100.00;59599.19;10504803;28;19920;-63
2022/06/06 15:06:10;;;;;;;;;;;;;;;-145.66;100.00;59599.19;10524403;28;19924;-64
2022/06/06 15:11:19;;;;;;;;;;;;;;;-145.66;100.00;59599.19;10525463;28;19936;-64
2022/06/06 15:16:22;;;;;;;;;;;;;;;-145.66;100.00;59599.19;10485472;28;19920;-63
2022/06/06 15:21:24;;;;;;;;;;;;;;;-145.66;100.00;59599.19;10503377;28;20311;-63
2022/06/06 15:26:32;;;;;;;;;;;;;;;-145.66;100.00;59599.19;10502202;28;19932;-64
2022/06/06 15:31:41;;;;;;;;;;;;;;;-145.66;100.00;59599.19;10490864;28;19927;-63
2022/06/06 15:36:50;;;;;;;;;;;;;;;-145.66;100.00;59599.19;10526502;28;19927;-62
2022/06/06 15:42:10;;;;;;;;;;;;;;;-145.66;100.00;59599.19;10524300;28;19920;-65
2022/06/06 15:47:33;;;;;;;;;;;;;;;-145.66;100.00;59599.19;10502053;28;19920;-63
2022/06/06 15:52:38;;;;;;;;;;;;;;;-145.66;100.00;59599.19;10482817;28;19928;-64
2022/06/06 15:57:58;;;;;;;;;;;;;;;-145.66;100.00;59599.19;10499732;23;20401;-64
2022/06/06 16:03:03;;;;;;;;;;;;;;;-145.66;100.00;59599.19;10543348;28;19924;-63
2022/06/06 16:08:12;;;;;;;;;;;;;;;-145.66;100.00;59599.19;10542959;28;19920;-64
2022/06/06 16:13:18;;;;;;;;;;;;;;;-145.66;100.00;59599.19;10541117;28;19942;-64
2022/06/06 16:18:22;;;;;;;;;;;;;;;-145.66;100.00;59599.19;10541977;28;20010;-63
2022/06/06 16:23:29;;;;;;;;;;;;;;;-145.66;100.00;59599.19;10542481;28;19920;-64
2022/06/06 16:28:34;;;;;;;;;;;;;;;-145.66;100.00;59599.19;10523889;28;19920;-64
2022/06/06 16:33:37;;;;;;;;;;;;;;;-145.66;100.00;59599.19;10541297;28;20397;-64
2022/06/06 16:38:45;;;;;;;;;;;;;;;-145.66;100.00;59599.19;10522830;28;19927;-63
2022/06/06 16:49:16;;;;;;;;;;;;;;;-145.66;100.00;59599.19;10492063;28;19924;-63
2022/06/06 16:54:25;;;;;;;;;;;;;;;-145.66;100.00;59599.19;10474015;28;20306;-63
2022/06/06 16:59:33;;;;;;;;;;;;;;;-145.66;100.00;59599.19;10467987;28;19924;-63
2022/06/06 17:04:43;;;;;;;;;;;;;;;-145.66;100.00;59599.19;10488396;28;20012;-63
2022/06/06 17:09:52;;;;;;;;;;;;;;;-145.66;100.00;59599.19;10490535;28;20022;-62
2022/06/06 17:15:10;;;;;;;;;;;;;;;-145.66;100.00;59599.19;10491970;28;19932;-63
2022/06/06 17:20:13;;;;;;;;;;;;;;;-145.66;100.00;59599.19;10490452;28;19924;-62
2022/06/06 17:25:33;;;;;;;;;;;;;;;-145.66;100.00;59599.19;10491039;28;20367;-61
2022/06/06 17:30:43;;;;;;;;;;;;;;;-145.66;100.00;59599.19;10489742;28;19924;-61
2022/06/06 17:35:49;;;;;;;;;;;;;;;-145.66;100.00;59599.19;10494592;28;19928;-61
2022/06/06 17:40:52;;;;;;;;;;;;;;;-145.66;100.00;59599.19;10488598;28;19929;-61
2022/06/06 17:45:54;;;;;;;;;;;;;;;-145.66;100.00;59599.19;10449476;28;19931;-61
2022/06/06 17:51:04;;;;;;;;;;;;;;;-145.66;100.00;59599.19;10496203;28;19924;-62
2022/06/06 17:56:12;;;;;;;;;;;;;;;-145.66;100.00;59599.19;10514873;28;19924;-61
2022/06/06 18:01:34;;;;;;;;;;;;;;;-145.66;100.00;59599.19;10515783;28;20268;-61
2022/06/06 18:06:55;;;;;;;;;;;;;;;-145.66;100.00;59599.19;10490194;28;19931;-61
2022/06/06 18:12:03;;;;;;;;;;;;;;;-145.66;100.00;59599.19;10506218;28;19924;-61
2022/06/06 18:17:17;;;;;;;;;;;;;;;-145.66;100.00;59599.19;10536190;28;19920;-61
2022/06/06 18:22:21;;;;;;;;;;;;;;;-145.66;100.00;59599.19;10537387;28;20409;-61
2022/06/06 18:27:31;;;;;;;;;;;;;;;-145.66;100.00;59599.19;10482351;28;19928;-62
2022/06/06 18:32:35;;;;;;;;;;;;;;;-145.66;100.00;59599.19;10508728;28;19946;-61
2022/06/06 18:37:41;;;;;;;;;;;;;;;-145.66;100.00;59599.19;10515062;28;19924;-61
2022/06/06 18:42:44;;;;;;;;;;;;;;;-145.66;100.00;59599.19;10473551;28;19947;-61
2022/06/06 18:47:48;;;;;;;;;;;;;;;-145.66;100.00;59599.19;10528860;28;19923;-61
2022/06/06 18:52:52;;;;;;;;;;;;;;;-145.66;100.00;59599.19;10519341;28;19928;-61
2022/06/06 18:57:58;;;;;;;;;;;;;;;-145.66;100.00;59599.19;10513189;28;19924;-61
2022/06/06 19:03:01;;;;;;;;;;;;;;;-145.66;100.00;59599.19;10518875;28;19949;-62
2022/06/06 19:08:04;;;;;;;;;;;;;;;-145.66;100.00;59599.19;10508436;28;19936;-61
2022/06/06 19:13:18;;;;;;;;;;;;;;;-145.66;100.00;59599.19;10510644;28;19927;-61
2022/06/06 19:18:23;;;;;;;;;;;;;;;-145.66;100.00;59599.19;10501190;28;19920;-61
2022/06/06 19:23:47;;;;;;;;;;;;;;;-145.66;100.00;59599.19;10521086;28;20278;-61
2022/06/06 19:28:50;;;;;;;;;;;;;;;-145.66;100.00;59599.19;10517224;28;20304;-61
2022/06/06 19:33:56;;;;;;;;;;;;;;;-145.66;100.00;59599.19;10522087;28;19927;-61
2022/06/06 19:39:21;;;;;;;;;;;;;;;-145.66;100.00;59599.19;10541043;28;20379;-61
2022/06/06 19:44:25;;;;;;;;;;;;;;;-145.66;100.00;59599.19;10542401;28;19920;-61
2022/06/06 19:49:27;;;;;;;;;;;;;;;-145.66;100.00;59599.19;10541409;28;19927;-61
2022/06/06 19:54:32;;;;;;;;;;;;;;;-145.66;100.00;59599.19;10542625;28;20329;-61
2022/06/06 19:59:41;;;;;;;;;;;;;;;-145.66;100.00;59599.19;10541891;28;19920;-61
2022/06/06 20:04:45;;;;;;;;;;;;;;;-145.66;100.00;59599.19;10519448;28;19927;-60
2022/06/06 20:09:52;;;;;;;;;;;;;;;-145.66;100.00;59599.19;10542224;28;19920;-61
2022/06/06 20:14:59;;;;;;;;;;;;;;;-145.66;100.00;59599.19;10519127;28;20370;-61
2022/06/06 20:20:19;;;;;;;;;;;;;;;-145.66;100.00;59599.19;10523421;28;20389;-61
2022/06/06 20:25:30;;;;;;;;;;;;;;;-145.66;100.00;59599.19;10515695;28;19920;-61
2022/06/06 20:30:33;;;;;;;;;;;;;;;-145.66;100.00;59599.19;10482766;28;19928;-61
2022/06/06 20:35:37;;;;;;;;;;;;;;;-145.66;100.00;59599.19;10467193;28;19921;-61
2022/06/06 20:40:53;;;;;;;;;;;;;;;-145.66;100.00;59599.19;10476035;28;19920;-61
2022/06/06 20:45:56;;;;;;;;;;;;;;;-145.66;100.00;59599.19;10521387;28;20311;-61
2022/06/06 20:50:59;;;;;;;;;;;;;;;-145.66;100.00;59599.19;10540695;28;20365;-62
2022/06/06 20:56:04;;;;;;;;;;;;;;;-145.66;100.00;59599.19;10523352;28;19945;-62
2022/06/06 21:01:06;;;;;;;;;;;;;;;-145.66;100.00;59599.19;10521581;28;19920;-62
2022/06/06 21:06:08;;;;;;;;;;;;;;;-145.66;100.00;59599.19;10540428;28;19946;-62
2022/06/06 21:11:11;;;;;;;;;;;;;;;-145.66;100.00;59599.19;10509250;28;20274;-61
2022/06/06 21:16:14;;;;;;;;;;;;;;;-145.66;100.00;59599.19;10490950;28;19920;-61
2022/06/06 21:21:16;;;;;;;;;;;;;;;-145.66;100.00;59599.19;10520894;28;20022;-61
2022/06/06 21:26:21;;;;;;;;;;;;;;;-145.66;100.00;59599.19;10506269;28;19930;-61
2022/06/06 21:31:23;;;;;;;;;;;;;;;-145.66;100.00;59599.19;10489066;28;20290;-61
2022/06/06 21:36:25;;;;;;;;;;;;;;;-145.66;100.00;59599.19;10459318;28;20315;-61
2022/06/06 21:41:28;;;;;;;;;;;;;;;-145.66;100.00;59599.19;10536375;28;20383;-61
2022/06/06 21:46:30;;;;;;;;;;;;;;;-145.66;100.00;59599.19;10539637;28;20359;-61
2022/06/06 21:51:35;;;;;;;;;;;;;;;-145.66;100.00;59599.19;10544834;28;19927;-61
2022/06/06 21:56:41;;;;;;;;;;;;;;;-145.66;100.00;59599.19;10548096;28;19920;-62
2022/06/06 22:01:44;;;;;;;;;;;;;;;-145.66;100.00;59599.19;10530083;28;19920;-61
2022/06/06 22:06:47;;;;;;;;;;;;;;;-145.66;100.00;59599.19;10529706;28;20046;-61
2022/06/06 22:11:50;;;;;;;;;;;;;;;-145.66;100.00;59599.19;10518879;28;20379;-61
2022/06/06 22:16:52;;;;;;;;;;;;;;;-145.66;100.00;59599.19;10529264;28;19927;-61
2022/06/06 22:21:54;;;;;;;;;;;;;;;-145.66;100.00;59599.19;10529142;28;19920;-61
2022/06/06 22:26:58;;;;;;;;;;;;;;;-145.66;100.00;59599.19;10547152;28;19926;-61
2022/06/06 22:32:00;;;;;;;;;;;;;;;-145.66;100.00;59599.19;10545829;28;19967;-61
2022/06/06 22:37:03;;;;;;;;;;;;;;;-145.66;100.00;59599.19;10546240;28;19956;-62
2022/06/06 22:42:05;;;;;;;;;;;;;;;-145.66;100.00;59599.19;10546594;28;19920;-62
2022/06/06 22:47:07;;;;;;;;;;;;;;;-145.66;100.00;59599.19;10546061;28;19927;-62
2022/06/06 22:52:10;;;;;;;;;;;;;;;-145.66;100.00;59599.19;10527539;28;20343;-62
2022/06/06 22:57:13;;;;;;;;;;;;;;;-145.66;100.00;59599.19;10544719;28;19920;-62
2022/06/06 23:02:15;;;;;;;;;;;;;;;-145.66;100.00;59599.19;10544367;28;20318;-61
2022/06/06 23:07:17;;;;;;;;;;;;;;;-145.66;100.00;59599.19;10527389;28;19967;-62
2022/06/06 23:12:20;;;;;;;;;;;;;;;-145.66;100.00;59599.19;10544466;28;20283;-61
2022/06/06 23:17:22;;;;;;;;;;;;;;;-145.66;100.00;59599.19;10543919;28;19920;-61
2022/06/06 23:22:24;;;;;;;;;;;;;;;-145.66;100.00;59599.19;10544084;28;19920;-62
2022/06/06 23:27:26;;;;;;;;;;;;;;;-145.66;100.00;59599.19;10543909;28;19923;-62
2022/06/06 23:32:29;;;;;;;;;;;;;;;-145.66;100.00;59599.19;10543850;28;20354;-61
2022/06/06 23:37:32;;;;;;;;;;;;;;;-145.66;100.00;59599.19;10544042;28;19936;-62
2022/06/06 23:42:35;;;;;;;;;;;;;;;-145.66;100.00;59599.19;10520642;28;19926;-62
2022/06/06 23:47:46;;;;;;;;;;;;;;;-145.66;100.00;59599.19;10525337;28;19920;-62
2022/06/06 23:52:49;;;;;;;;;;;;;;;-145.66;100.00;59599.19;10525852;28;19931;-62
2022/06/06 23:57:51;;;;;;;;;;;;;;;-145.66;100.00;59599.19;10510559;28;19920;-62
